sensor_id;sensor_type;location;lat;lon;timestamp;P1;durP1;ratioP1;P2;durP2;ratioP2
4575;SDS011;2300;51.874;8.430;2023-02-03T00:02:01;51.70;;;35.73;;
4575;SDS011;2300;51.874;8.430;2023-02-03T00:04:28;56.23;;;36.63;;
4575;SDS011;2300;51.874;8.430;2023-02-03T00:06:54;52.97;;;36.43;;
4575;SDS011;2300;51.874;8.430;2023-02-03T00:09:21;50.53;;;35.90;;
4575;SDS011;2300;51.874;8.430;2023-02-03T00:11:49;48.00;;;35.03;;
4575;SDS011;2300;51.874;8.430;2023-02-03T00:14:15;48.37;;;34.90;;
4575;SDS011;2300;51.874;8.430;2023-02-03T00:16:42;47.80;;;31.60;;
4575;SDS011;2300;51.874;8.430;2023-02-03T00:19:08;49.03;;;35.30;;
4575;SDS011;2300;51.874;8.430;2023-02-03T00:21:35;51.47;;;35.43;;
4575;SDS011;2300;51.874;8.430;2023-02-03T00:24:01;51.00;;;35.37;;
4575;SDS011;2300;51.874;8.430;2023-02-03T00:26:28;51.37;;;35.47;;
4575;SDS011;2300;51.874;8.430;2023-02-03T00:28:57;49.07;;;34.37;;
4575;SDS011;2300;51.874;8.430;2023-02-03T00:31:24;50.20;;;35.57;;
4575;SDS011;2300;51.874;8.430;2023-02-03T00:33:54;53.20;;;35.37;;
4575;SDS011;2300;51.874;8.430;2023-02-03T00:36:21;48.40;;;33.20;;
4575;SDS011;2300;51.874;8.430;2023-02-03T00:38:48;48.07;;;33.93;;
4575;SDS011;2300;51.874;8.430;2023-02-03T00:41:15;48.53;;;35.03;;
4575;SDS011;2300;51.874;8.430;2023-02-03T00:43:42;50.63;;;35.33;;
4575;SDS011;2300;51.874;8.430;2023-02-03T00:46:09;53.50;;;35.73;;
4575;SDS011;2300;51.874;8.430;2023-02-03T00:48:36;51.20;;;35.17;;
4575;SDS011;2300;51.874;8.430;2023-02-03T00:51:03;49.83;;;35.30;;
4575;SDS011;2300;51.874;8.430;2023-02-03T00:53:29;46.73;;;33.73;;
4575;SDS011;2300;51.874;8.430;2023-02-03T00:55:56;44.20;;;33.30;;
4575;SDS011;2300;51.874;8.430;2023-02-03T00:58:22;49.37;;;34.40;;
4575;SDS011;2300;51.874;8.430;2023-02-03T01:00:49;50.47;;;34.33;;
4575;SDS011;2300;51.874;8.430;2023-02-03T01:03:16;49.10;;;34.43;;
4575;SDS011;2300;51.874;8.430;2023-02-03T01:05:43;48.80;;;33.97;;
4575;SDS011;2300;51.874;8.430;2023-02-03T01:08:09;48.93;;;32.77;;
4575;SDS011;2300;51.874;8.430;2023-02-03T01:10:36;48.67;;;34.67;;
4575;SDS011;2300;51.874;8.430;2023-02-03T01:13:03;51.13;;;33.77;;
4575;SDS011;2300;51.874;8.430;2023-02-03T01:15:29;49.37;;;33.23;;
4575;SDS011;2300;51.874;8.430;2023-02-03T01:17:56;49.70;;;33.83;;
4575;SDS011;2300;51.874;8.430;2023-02-03T01:20:23;51.20;;;33.67;;
4575;SDS011;2300;51.874;8.430;2023-02-03T01:22:50;45.20;;;32.37;;
4575;SDS011;2300;51.874;8.430;2023-02-03T01:25:16;47.50;;;32.67;;
4575;SDS011;2300;51.874;8.430;2023-02-03T01:27:43;43.23;;;31.73;;
4575;SDS011;2300;51.874;8.430;2023-02-03T01:30:10;48.17;;;31.80;;
4575;SDS011;2300;51.874;8.430;2023-02-03T01:32:36;49.93;;;33.97;;
4575;SDS011;2300;51.874;8.430;2023-02-03T01:35:03;48.60;;;32.33;;
4575;SDS011;2300;51.874;8.430;2023-02-03T01:37:31;45.23;;;32.23;;
4575;SDS011;2300;51.874;8.430;2023-02-03T01:39:57;48.07;;;32.83;;
4575;SDS011;2300;51.874;8.430;2023-02-03T01:42:24;47.10;;;31.17;;
4575;SDS011;2300;51.874;8.430;2023-02-03T01:44:50;47.57;;;30.87;;
4575;SDS011;2300;51.874;8.430;2023-02-03T01:47:21;45.70;;;31.07;;
4575;SDS011;2300;51.874;8.430;2023-02-03T01:49:52;44.20;;;31.43;;
4575;SDS011;2300;51.874;8.430;2023-02-03T01:52:23;45.60;;;31.23;;
4575;SDS011;2300;51.874;8.430;2023-02-03T01:54:51;45.57;;;30.50;;
4575;SDS011;2300;51.874;8.430;2023-02-03T01:57:23;43.83;;;31.60;;
4575;SDS011;2300;51.874;8.430;2023-02-03T01:59:54;41.63;;;28.77;;
4575;SDS011;2300;51.874;8.430;2023-02-03T02:02:24;43.80;;;29.60;;
4575;SDS011;2300;51.874;8.430;2023-02-03T02:04:52;40.83;;;28.80;;
4575;SDS011;2300;51.874;8.430;2023-02-03T02:07:23;40.23;;;28.00;;
4575;SDS011;2300;51.874;8.430;2023-02-03T02:09:51;41.93;;;28.23;;
4575;SDS011;2300;51.874;8.430;2023-02-03T02:12:18;43.73;;;26.90;;
4575;SDS011;2300;51.874;8.430;2023-02-03T02:14:44;44.67;;;28.27;;
4575;SDS011;2300;51.874;8.430;2023-02-03T02:17:13;38.20;;;26.90;;
4575;SDS011;2300;51.874;8.430;2023-02-03T02:19:55;40.50;;;26.87;;
4575;SDS011;2300;51.874;8.430;2023-02-03T02:22:50;39.97;;;26.53;;
4575;SDS011;2300;51.874;8.430;2023-02-03T02:25:37;41.03;;;27.33;;
4575;SDS011;2300;51.874;8.430;2023-02-03T02:28:31;36.83;;;25.77;;
4575;SDS011;2300;51.874;8.430;2023-02-03T02:31:32;41.17;;;27.10;;
4575;SDS011;2300;51.874;8.430;2023-02-03T02:34:17;95.47;;;88.77;;
4575;SDS011;2300;51.874;8.430;2023-02-03T02:36:51;43.83;;;27.53;;
4575;SDS011;2300;51.874;8.430;2023-02-03T02:39:31;36.50;;;27.60;;
4575;SDS011;2300;51.874;8.430;2023-02-03T02:42:05;36.83;;;27.20;;
4575;SDS011;2300;51.874;8.430;2023-02-03T02:44:40;37.43;;;25.70;;
4575;SDS011;2300;51.874;8.430;2023-02-03T02:47:14;36.10;;;30.00;;
4575;SDS011;2300;51.874;8.430;2023-02-03T02:49:43;35.10;;;24.13;;
4575;SDS011;2300;51.874;8.430;2023-02-03T02:52:16;37.17;;;26.50;;
4575;SDS011;2300;51.874;8.430;2023-02-03T02:54:45;36.47;;;25.87;;
4575;SDS011;2300;51.874;8.430;2023-02-03T02:57:16;35.87;;;31.63;;
4575;SDS011;2300;51.874;8.430;2023-02-03T02:59:46;35.07;;;25.10;;
4575;SDS011;2300;51.874;8.430;2023-02-03T03:02:14;38.10;;;25.10;;
4575;SDS011;2300;51.874;8.430;2023-02-03T03:04:41;34.53;;;28.70;;
4575;SDS011;2300;51.874;8.430;2023-02-03T03:07:12;38.53;;;25.53;;
4575;SDS011;2300;51.874;8.430;2023-02-03T03:09:43;37.43;;;26.87;;
4575;SDS011;2300;51.874;8.430;2023-02-03T03:12:14;31.90;;;25.30;;
4575;SDS011;2300;51.874;8.430;2023-02-03T03:14:44;32.33;;;25.23;;
4575;SDS011;2300;51.874;8.430;2023-02-03T03:17:20;31.33;;;23.13;;
4575;SDS011;2300;51.874;8.430;2023-02-03T03:19:51;36.30;;;24.13;;
4575;SDS011;2300;51.874;8.430;2023-02-03T03:22:23;32.13;;;24.30;;
4575;SDS011;2300;51.874;8.430;2023-02-03T03:24:54;29.03;;;21.90;;
4575;SDS011;2300;51.874;8.430;2023-02-03T03:27:25;36.60;;;25.37;;
4575;SDS011;2300;51.874;8.430;2023-02-03T03:29:58;30.80;;;26.43;;
4575;SDS011;2300;51.874;8.430;2023-02-03T03:32:29;36.47;;;23.53;;
4575;SDS011;2300;51.874;8.430;2023-02-03T03:34:57;33.10;;;25.03;;
4575;SDS011;2300;51.874;8.430;2023-02-03T03:37:27;36.90;;;28.83;;
4575;SDS011;2300;51.874;8.430;2023-02-03T03:39:59;34.20;;;26.67;;
4575;SDS011;2300;51.874;8.430;2023-02-03T03:42:33;34.40;;;27.00;;
4575;SDS011;2300;51.874;8.430;2023-02-03T03:45:04;30.83;;;22.60;;
4575;SDS011;2300;51.874;8.430;2023-02-03T03:47:36;33.13;;;26.23;;
4575;SDS011;2300;51.874;8.430;2023-02-03T03:50:08;35.60;;;28.00;;
4575;SDS011;2300;51.874;8.430;2023-02-03T03:52:38;32.40;;;27.73;;
4575;SDS011;2300;51.874;8.430;2023-02-03T03:55:07;37.30;;;23.60;;
4575;SDS011;2300;51.874;8.430;2023-02-03T03:57:38;33.33;;;25.63;;
4575;SDS011;2300;51.874;8.430;2023-02-03T04:00:09;31.07;;;22.00;;
4575;SDS011;2300;51.874;8.430;2023-02-03T04:02:41;33.60;;;23.00;;
4575;SDS011;2300;51.874;8.430;2023-02-03T04:05:11;28.73;;;21.40;;
4575;SDS011;2300;51.874;8.430;2023-02-03T04:07:40;28.43;;;20.60;;
4575;SDS011;2300;51.874;8.430;2023-02-03T04:10:11;33.07;;;20.90;;
4575;SDS011;2300;51.874;8.430;2023-02-03T04:12:43;30.07;;;20.70;;
4575;SDS011;2300;51.874;8.430;2023-02-03T04:15:09;27.70;;;19.67;;
4575;SDS011;2300;51.874;8.430;2023-02-03T04:17:35;27.40;;;21.77;;
4575;SDS011;2300;51.874;8.430;2023-02-03T04:20:04;32.43;;;20.17;;
4575;SDS011;2300;51.874;8.430;2023-02-03T04:22:31;27.43;;;21.93;;
4575;SDS011;2300;51.874;8.430;2023-02-03T04:24:57;34.03;;;22.67;;
4575;SDS011;2300;51.874;8.430;2023-02-03T04:27:23;25.00;;;20.10;;
4575;SDS011;2300;51.874;8.430;2023-02-03T04:29:50;25.43;;;21.07;;
4575;SDS011;2300;51.874;8.430;2023-02-03T04:32:16;27.97;;;21.03;;
4575;SDS011;2300;51.874;8.430;2023-02-03T04:34:43;24.80;;;19.90;;
4575;SDS011;2300;51.874;8.430;2023-02-03T04:37:11;31.60;;;21.20;;
4575;SDS011;2300;51.874;8.430;2023-02-03T04:39:38;29.73;;;20.60;;
4575;SDS011;2300;51.874;8.430;2023-02-03T04:42:04;24.63;;;20.77;;
4575;SDS011;2300;51.874;8.430;2023-02-03T04:44:31;25.73;;;20.17;;
4575;SDS011;2300;51.874;8.430;2023-02-03T04:46:57;25.57;;;19.17;;
4575;SDS011;2300;51.874;8.430;2023-02-03T04:49:24;25.57;;;18.73;;
4575;SDS011;2300;51.874;8.430;2023-02-03T04:51:50;24.23;;;17.90;;
4575;SDS011;2300;51.874;8.430;2023-02-03T04:54:18;27.83;;;18.67;;
4575;SDS011;2300;51.874;8.430;2023-02-03T04:56:45;28.00;;;16.13;;
4575;SDS011;2300;51.874;8.430;2023-02-03T04:59:11;24.50;;;17.70;;
4575;SDS011;2300;51.874;8.430;2023-02-03T05:01:38;25.07;;;17.17;;
4575;SDS011;2300;51.874;8.430;2023-02-03T05:04:04;27.07;;;18.00;;
4575;SDS011;2300;51.874;8.430;2023-02-03T05:06:30;23.07;;;16.80;;
4575;SDS011;2300;51.874;8.430;2023-02-03T05:08:58;22.07;;;16.87;;
4575;SDS011;2300;51.874;8.430;2023-02-03T05:11:26;26.60;;;17.03;;
4575;SDS011;2300;51.874;8.430;2023-02-03T05:13:53;24.67;;;16.23;;
4575;SDS011;2300;51.874;8.430;2023-02-03T05:16:20;21.67;;;16.67;;
4575;SDS011;2300;51.874;8.430;2023-02-03T05:18:46;23.23;;;15.57;;
4575;SDS011;2300;51.874;8.430;2023-02-03T05:21:12;16.93;;;14.50;;
4575;SDS011;2300;51.874;8.430;2023-02-03T05:23:39;24.50;;;16.07;;
4575;SDS011;2300;51.874;8.430;2023-02-03T05:26:05;21.00;;;15.63;;
4575;SDS011;2300;51.874;8.430;2023-02-03T05:28:33;178.20;;;106.53;;
4575;SDS011;2300;51.874;8.430;2023-02-03T05:31:00;22.83;;;14.43;;
4575;SDS011;2300;51.874;8.430;2023-02-03T05:33:27;22.73;;;14.00;;
4575;SDS011;2300;51.874;8.430;2023-02-03T05:35:57;21.83;;;13.27;;
4575;SDS011;2300;51.874;8.430;2023-02-03T05:38:24;21.97;;;12.60;;
4575;SDS011;2300;51.874;8.430;2023-02-03T05:40:51;20.63;;;13.57;;
4575;SDS011;2300;51.874;8.430;2023-02-03T05:43:37;24.10;;;14.03;;
4575;SDS011;2300;51.874;8.430;2023-02-03T05:46:04;20.27;;;14.13;;
4575;SDS011;2300;51.874;8.430;2023-02-03T05:48:32;20.23;;;12.80;;
4575;SDS011;2300;51.874;8.430;2023-02-03T05:50:59;24.00;;;14.37;;
4575;SDS011;2300;51.874;8.430;2023-02-03T05:53:25;25.73;;;16.30;;
4575;SDS011;2300;51.874;8.430;2023-02-03T05:55:53;19.10;;;12.83;;
4575;SDS011;2300;51.874;8.430;2023-02-03T05:58:19;21.03;;;12.93;;
4575;SDS011;2300;51.874;8.430;2023-02-03T06:00:47;35.00;;;19.47;;
4575;SDS011;2300;51.874;8.430;2023-02-03T06:03:13;37.77;;;22.90;;
4575;SDS011;2300;51.874;8.430;2023-02-03T06:05:40;19.07;;;13.77;;
4575;SDS011;2300;51.874;8.430;2023-02-03T06:08:07;19.60;;;13.90;;
4575;SDS011;2300;51.874;8.430;2023-02-03T06:10:34;26.00;;;17.20;;
4575;SDS011;2300;51.874;8.430;2023-02-03T06:13:07;20.43;;;13.87;;
4575;SDS011;2300;51.874;8.430;2023-02-03T06:15:35;37.40;;;27.97;;
4575;SDS011;2300;51.874;8.430;2023-02-03T06:18:02;21.17;;;14.20;;
4575;SDS011;2300;51.874;8.430;2023-02-03T06:20:29;26.43;;;16.30;;
4575;SDS011;2300;51.874;8.430;2023-02-03T06:22:56;19.00;;;13.23;;
4575;SDS011;2300;51.874;8.430;2023-02-03T06:25:22;20.80;;;12.67;;
4575;SDS011;2300;51.874;8.430;2023-02-03T06:27:49;27.23;;;18.43;;
4575;SDS011;2300;51.874;8.430;2023-02-03T06:30:16;23.77;;;14.63;;
4575;SDS011;2300;51.874;8.430;2023-02-03T06:32:44;19.23;;;13.80;;
4575;SDS011;2300;51.874;8.430;2023-02-03T06:35:12;21.83;;;15.73;;
4575;SDS011;2300;51.874;8.430;2023-02-03T06:37:38;20.80;;;14.70;;
4575;SDS011;2300;51.874;8.430;2023-02-03T06:40:05;18.30;;;13.67;;
4575;SDS011;2300;51.874;8.430;2023-02-03T06:42:32;16.30;;;13.67;;
4575;SDS011;2300;51.874;8.430;2023-02-03T06:44:59;20.50;;;14.30;;
4575;SDS011;2300;51.874;8.430;2023-02-03T06:47:25;20.13;;;14.13;;
4575;SDS011;2300;51.874;8.430;2023-02-03T06:49:52;24.23;;;21.77;;
4575;SDS011;2300;51.874;8.430;2023-02-03T06:52:20;24.77;;;17.13;;
4575;SDS011;2300;51.874;8.430;2023-02-03T06:54:46;21.83;;;14.00;;
4575;SDS011;2300;51.874;8.430;2023-02-03T06:57:12;21.73;;;14.27;;
4575;SDS011;2300;51.874;8.430;2023-02-03T06:59:39;25.10;;;19.90;;
4575;SDS011;2300;51.874;8.430;2023-02-03T07:02:05;22.07;;;14.90;;
4575;SDS011;2300;51.874;8.430;2023-02-03T07:04:32;19.07;;;13.80;;
4575;SDS011;2300;51.874;8.430;2023-02-03T07:06:58;26.10;;;16.27;;
4575;SDS011;2300;51.874;8.430;2023-02-03T07:09:26;26.97;;;18.20;;
4575;SDS011;2300;51.874;8.430;2023-02-03T07:12:01;20.73;;;15.13;;
4575;SDS011;2300;51.874;8.430;2023-02-03T07:14:27;22.27;;;15.27;;
4575;SDS011;2300;51.874;8.430;2023-02-03T07:16:55;24.00;;;15.90;;
4575;SDS011;2300;51.874;8.430;2023-02-03T07:19:21;23.67;;;18.97;;
4575;SDS011;2300;51.874;8.430;2023-02-03T07:21:48;24.53;;;15.57;;
4575;SDS011;2300;51.874;8.430;2023-02-03T07:24:14;24.33;;;15.40;;
4575;SDS011;2300;51.874;8.430;2023-02-03T07:26:42;23.40;;;15.80;;
4575;SDS011;2300;51.874;8.430;2023-02-03T07:29:08;19.97;;;15.60;;
4575;SDS011;2300;51.874;8.430;2023-02-03T07:31:35;27.73;;;15.00;;
4575;SDS011;2300;51.874;8.430;2023-02-03T07:34:02;26.10;;;16.10;;
4575;SDS011;2300;51.874;8.430;2023-02-03T07:36:28;21.03;;;14.23;;
4575;SDS011;2300;51.874;8.430;2023-02-03T07:38:55;24.87;;;20.33;;
4575;SDS011;2300;51.874;8.430;2023-02-03T07:41:22;20.07;;;15.07;;
4575;SDS011;2300;51.874;8.430;2023-02-03T07:43:50;18.90;;;14.53;;
4575;SDS011;2300;51.874;8.430;2023-02-03T07:46:16;22.47;;;14.40;;
4575;SDS011;2300;51.874;8.430;2023-02-03T07:48:42;24.73;;;15.20;;
4575;SDS011;2300;51.874;8.430;2023-02-03T07:51:09;23.03;;;14.33;;
4575;SDS011;2300;51.874;8.430;2023-02-03T07:53:35;22.13;;;16.13;;
4575;SDS011;2300;51.874;8.430;2023-02-03T07:56:03;24.97;;;14.60;;
4575;SDS011;2300;51.874;8.430;2023-02-03T07:58:30;25.50;;;14.60;;
4575;SDS011;2300;51.874;8.430;2023-02-03T08:00:58;21.30;;;14.43;;
4575;SDS011;2300;51.874;8.430;2023-02-03T08:03:25;28.17;;;14.80;;
4575;SDS011;2300;51.874;8.430;2023-02-03T08:05:51;26.63;;;16.70;;
4575;SDS011;2300;51.874;8.430;2023-02-03T08:08:18;21.53;;;16.67;;
4575;SDS011;2300;51.874;8.430;2023-02-03T08:10:45;23.07;;;13.63;;
4575;SDS011;2300;51.874;8.430;2023-02-03T08:13:11;27.00;;;13.73;;
4575;SDS011;2300;51.874;8.430;2023-02-03T08:15:38;19.97;;;13.40;;
4575;SDS011;2300;51.874;8.430;2023-02-03T08:18:06;22.20;;;13.47;;
4575;SDS011;2300;51.874;8.430;2023-02-03T08:20:33;20.47;;;14.37;;
4575;SDS011;2300;51.874;8.430;2023-02-03T08:23:00;24.00;;;13.57;;
4575;SDS011;2300;51.874;8.430;2023-02-03T08:25:26;25.87;;;16.20;;
4575;SDS011;2300;51.874;8.430;2023-02-03T08:27:53;26.33;;;14.13;;
4575;SDS011;2300;51.874;8.430;2023-02-03T08:30:19;25.73;;;14.50;;
4575;SDS011;2300;51.874;8.430;2023-02-03T08:32:46;21.93;;;13.97;;
4575;SDS011;2300;51.874;8.430;2023-02-03T08:35:14;24.63;;;15.17;;
4575;SDS011;2300;51.874;8.430;2023-02-03T08:37:41;23.47;;;14.73;;
4575;SDS011;2300;51.874;8.430;2023-02-03T08:40:08;23.47;;;14.90;;
4575;SDS011;2300;51.874;8.430;2023-02-03T08:42:36;24.97;;;15.03;;
4575;SDS011;2300;51.874;8.430;2023-02-03T08:45:03;25.47;;;15.53;;
4575;SDS011;2300;51.874;8.430;2023-02-03T08:47:30;28.83;;;16.00;;
4575;SDS011;2300;51.874;8.430;2023-02-03T08:49:56;27.73;;;16.07;;
4575;SDS011;2300;51.874;8.430;2023-02-03T08:52:24;23.37;;;16.03;;
4575;SDS011;2300;51.874;8.430;2023-02-03T08:54:51;26.40;;;15.93;;
4575;SDS011;2300;51.874;8.430;2023-02-03T08:57:17;22.60;;;15.53;;
4575;SDS011;2300;51.874;8.430;2023-02-03T08:59:44;29.67;;;16.90;;
4575;SDS011;2300;51.874;8.430;2023-02-03T09:02:12;28.87;;;25.53;;
4575;SDS011;2300;51.874;8.430;2023-02-03T09:04:41;24.97;;;17.73;;
4575;SDS011;2300;51.874;8.430;2023-02-03T09:07:08;23.20;;;16.00;;
4575;SDS011;2300;51.874;8.430;2023-02-03T09:09:36;26.40;;;15.83;;
4575;SDS011;2300;51.874;8.430;2023-02-03T09:12:04;29.90;;;15.67;;
4575;SDS011;2300;51.874;8.430;2023-02-03T09:14:31;27.97;;;15.50;;
4575;SDS011;2300;51.874;8.430;2023-02-03T09:16:58;28.40;;;15.50;;
4575;SDS011;2300;51.874;8.430;2023-02-03T09:19:25;24.80;;;15.40;;
4575;SDS011;2300;51.874;8.430;2023-02-03T09:21:51;26.10;;;14.63;;
4575;SDS011;2300;51.874;8.430;2023-02-03T09:24:18;22.63;;;15.63;;
4575;SDS011;2300;51.874;8.430;2023-02-03T09:26:46;22.80;;;14.20;;
4575;SDS011;2300;51.874;8.430;2023-02-03T09:29:12;24.83;;;14.47;;
4575;SDS011;2300;51.874;8.430;2023-02-03T09:31:38;21.70;;;13.17;;
4575;SDS011;2300;51.874;8.430;2023-02-03T09:34:05;23.47;;;13.00;;
4575;SDS011;2300;51.874;8.430;2023-02-03T09:36:32;21.23;;;15.87;;
4575;SDS011;2300;51.874;8.430;2023-02-03T09:38:59;22.93;;;13.50;;
4575;SDS011;2300;51.874;8.430;2023-02-03T09:41:29;16.37;;;13.27;;
4575;SDS011;2300;51.874;8.430;2023-02-03T09:44:23;24.50;;;14.00;;
4575;SDS011;2300;51.874;8.430;2023-02-03T09:46:58;28.57;;;13.63;;
4575;SDS011;2300;51.874;8.430;2023-02-03T09:49:27;23.27;;;14.60;;
4575;SDS011;2300;51.874;8.430;2023-02-03T09:51:56;21.63;;;12.00;;
4575;SDS011;2300;51.874;8.430;2023-02-03T09:54:30;19.00;;;11.30;;
4575;SDS011;2300;51.874;8.430;2023-02-03T09:57:05;22.23;;;12.80;;
4575;SDS011;2300;51.874;8.430;2023-02-03T09:59:38;24.10;;;12.63;;
4575;SDS011;2300;51.874;8.430;2023-02-03T10:02:10;25.37;;;13.43;;
4575;SDS011;2300;51.874;8.430;2023-02-03T10:04:56;25.60;;;13.87;;
4575;SDS011;2300;51.874;8.430;2023-02-03T10:07:27;23.47;;;13.67;;
4575;SDS011;2300;51.874;8.430;2023-02-03T10:10:07;21.60;;;12.03;;
4575;SDS011;2300;51.874;8.430;2023-02-03T10:12:52;25.00;;;11.93;;
4575;SDS011;2300;51.874;8.430;2023-02-03T10:21:02;20.43;;;12.20;;
4575;SDS011;2300;51.874;8.430;2023-02-03T10:23:38;23.97;;;11.53;;
4575;SDS011;2300;51.874;8.430;2023-02-03T10:26:07;20.53;;;14.10;;
4575;SDS011;2300;51.874;8.430;2023-02-03T10:28:40;19.03;;;12.03;;
4575;SDS011;2300;51.874;8.430;2023-02-03T10:31:13;23.87;;;11.50;;
4575;SDS011;2300;51.874;8.430;2023-02-03T10:33:43;19.70;;;11.90;;
4575;SDS011;2300;51.874;8.430;2023-02-03T10:36:12;21.87;;;13.17;;
4575;SDS011;2300;51.874;8.430;2023-02-03T10:38:45;22.17;;;13.03;;
4575;SDS011;2300;51.874;8.430;2023-02-03T10:41:20;21.57;;;11.93;;
4575;SDS011;2300;51.874;8.430;2023-02-03T10:43:49;24.10;;;14.47;;
4575;SDS011;2300;51.874;8.430;2023-02-03T10:46:18;21.87;;;11.83;;
4575;SDS011;2300;51.874;8.430;2023-02-03T10:48:46;21.20;;;12.70;;
4575;SDS011;2300;51.874;8.430;2023-02-03T10:51:16;35.73;;;16.67;;
4575;SDS011;2300;51.874;8.430;2023-02-03T10:53:45;24.40;;;15.57;;
4575;SDS011;2300;51.874;8.430;2023-02-03T10:56:12;22.20;;;13.57;;
4575;SDS011;2300;51.874;8.430;2023-02-03T10:58:45;25.53;;;19.13;;
4575;SDS011;2300;51.874;8.430;2023-02-03T11:01:16;27.37;;;14.50;;
4575;SDS011;2300;51.874;8.430;2023-02-03T11:03:52;21.73;;;13.73;;
4575;SDS011;2300;51.874;8.430;2023-02-03T11:06:21;23.60;;;13.10;;
4575;SDS011;2300;51.874;8.430;2023-02-03T11:08:49;23.07;;;12.20;;
4575;SDS011;2300;51.874;8.430;2023-02-03T11:11:19;19.20;;;12.13;;
4575;SDS011;2300;51.874;8.430;2023-02-03T11:13:51;29.60;;;14.97;;
4575;SDS011;2300;51.874;8.430;2023-02-03T11:16:19;31.90;;;16.73;;
4575;SDS011;2300;51.874;8.430;2023-02-03T11:18:53;28.60;;;14.20;;
4575;SDS011;2300;51.874;8.430;2023-02-03T11:21:21;21.07;;;13.07;;
4575;SDS011;2300;51.874;8.430;2023-02-03T11:23:52;18.13;;;12.00;;
4575;SDS011;2300;51.874;8.430;2023-02-03T11:26:21;23.50;;;11.33;;
4575;SDS011;2300;51.874;8.430;2023-02-03T11:28:51;25.30;;;12.10;;
4575;SDS011;2300;51.874;8.430;2023-02-03T11:31:23;22.53;;;10.90;;
4575;SDS011;2300;51.874;8.430;2023-02-03T11:34:01;22.70;;;10.23;;
4575;SDS011;2300;51.874;8.430;2023-02-03T11:36:30;19.40;;;10.23;;
4575;SDS011;2300;51.874;8.430;2023-02-03T11:39:09;22.10;;;10.33;;
4575;SDS011;2300;51.874;8.430;2023-02-03T11:41:46;24.03;;;10.80;;
4575;SDS011;2300;51.874;8.430;2023-02-03T11:44:18;22.07;;;10.23;;
4575;SDS011;2300;51.874;8.430;2023-02-03T11:46:48;22.23;;;10.93;;
4575;SDS011;2300;51.874;8.430;2023-02-03T11:49:28;22.07;;;11.20;;
4575;SDS011;2300;51.874;8.430;2023-02-03T11:52:11;19.00;;;10.43;;
4575;SDS011;2300;51.874;8.430;2023-02-03T11:54:54;21.00;;;10.40;;
4575;SDS011;2300;51.874;8.430;2023-02-03T11:57:35;24.07;;;12.13;;
4575;SDS011;2300;51.874;8.430;2023-02-03T12:00:15;24.53;;;15.20;;
4575;SDS011;2300;51.874;8.430;2023-02-03T12:03:17;19.73;;;10.63;;
4575;SDS011;2300;51.874;8.430;2023-02-03T12:06:05;20.97;;;13.33;;
4575;SDS011;2300;51.874;8.430;2023-02-03T12:08:52;21.20;;;11.20;;
4575;SDS011;2300;51.874;8.430;2023-02-03T12:11:33;22.07;;;10.50;;
4575;SDS011;2300;51.874;8.430;2023-02-03T12:14:14;18.23;;;8.23;;
4575;SDS011;2300;51.874;8.430;2023-02-03T12:16:57;16.97;;;7.93;;
4575;SDS011;2300;51.874;8.430;2023-02-03T12:19:48;15.90;;;8.00;;
4575;SDS011;2300;51.874;8.430;2023-02-03T12:22:28;21.40;;;9.07;;
4575;SDS011;2300;51.874;8.430;2023-02-03T12:25:03;17.73;;;6.40;;
4575;SDS011;2300;51.874;8.430;2023-02-03T12:27:40;19.80;;;6.90;;
4575;SDS011;2300;51.874;8.430;2023-02-03T12:30:16;19.93;;;7.23;;
4575;SDS011;2300;51.874;8.430;2023-02-03T12:32:47;16.97;;;6.77;;
4575;SDS011;2300;51.874;8.430;2023-02-03T12:35:19;17.43;;;8.03;;
4575;SDS011;2300;51.874;8.430;2023-02-03T12:37:52;23.97;;;7.37;;
4575;SDS011;2300;51.874;8.430;2023-02-03T12:40:28;24.47;;;5.80;;
4575;SDS011;2300;51.874;8.430;2023-02-03T12:43:03;24.70;;;6.13;;
4575;SDS011;2300;51.874;8.430;2023-02-03T12:45:44;28.17;;;6.03;;
4575;SDS011;2300;51.874;8.430;2023-02-03T12:48:19;32.47;;;6.67;;
4575;SDS011;2300;51.874;8.430;2023-02-03T12:50:52;19.93;;;7.00;;
4575;SDS011;2300;51.874;8.430;2023-02-03T12:53:22;20.13;;;9.03;;
4575;SDS011;2300;51.874;8.430;2023-02-03T12:55:55;24.43;;;6.37;;
4575;SDS011;2300;51.874;8.430;2023-02-03T12:58:27;26.47;;;6.17;;
4575;SDS011;2300;51.874;8.430;2023-02-03T13:00:57;21.77;;;6.20;;
4575;SDS011;2300;51.874;8.430;2023-02-03T13:03:28;29.73;;;7.13;;
4575;SDS011;2300;51.874;8.430;2023-02-03T13:06:05;23.40;;;6.57;;
4575;SDS011;2300;51.874;8.430;2023-02-03T13:08:37;23.13;;;6.20;;
4575;SDS011;2300;51.874;8.430;2023-02-03T13:11:09;21.40;;;5.57;;
4575;SDS011;2300;51.874;8.430;2023-02-03T13:13:46;20.73;;;6.00;;
4575;SDS011;2300;51.874;8.430;2023-02-03T13:16:18;21.47;;;5.90;;
4575;SDS011;2300;51.874;8.430;2023-02-03T13:18:51;20.03;;;6.73;;
4575;SDS011;2300;51.874;8.430;2023-02-03T13:21:27;22.20;;;6.57;;
4575;SDS011;2300;51.874;8.430;2023-02-03T13:24:04;32.60;;;20.47;;
4575;SDS011;2300;51.874;8.430;2023-02-03T13:26:40;28.43;;;5.37;;
4575;SDS011;2300;51.874;8.430;2023-02-03T13:32:15;20.60;;;5.80;;
4575;SDS011;2300;51.874;8.430;2023-02-03T13:34:58;31.13;;;11.10;;
4575;SDS011;2300;51.874;8.430;2023-02-03T13:37:41;22.43;;;5.50;;
4575;SDS011;2300;51.874;8.430;2023-02-03T13:40:31;26.70;;;5.97;;
4575;SDS011;2300;51.874;8.430;2023-02-03T13:43:08;27.03;;;6.80;;
4575;SDS011;2300;51.874;8.430;2023-02-03T13:45:38;26.10;;;6.40;;
4575;SDS011;2300;51.874;8.430;2023-02-03T13:48:21;21.47;;;4.77;;
4575;SDS011;2300;51.874;8.430;2023-02-03T13:51:00;23.20;;;5.30;;
4575;SDS011;2300;51.874;8.430;2023-02-03T13:53:33;20.40;;;5.37;;
4575;SDS011;2300;51.874;8.430;2023-02-03T13:56:02;23.10;;;6.90;;
4575;SDS011;2300;51.874;8.430;2023-02-03T13:58:31;27.23;;;6.77;;
4575;SDS011;2300;51.874;8.430;2023-02-03T14:01:05;31.50;;;6.63;;
4575;SDS011;2300;51.874;8.430;2023-02-03T14:03:52;24.03;;;6.13;;
4575;SDS011;2300;51.874;8.430;2023-02-03T14:09:35;26.07;;;5.63;;
4575;SDS011;2300;51.874;8.430;2023-02-03T14:15:16;20.20;;;6.67;;
4575;SDS011;2300;51.874;8.430;2023-02-03T14:17:56;27.07;;;6.37;;
4575;SDS011;2300;51.874;8.430;2023-02-03T14:20:38;24.30;;;7.50;;
4575;SDS011;2300;51.874;8.430;2023-02-03T14:23:07;30.77;;;8.20;;
4575;SDS011;2300;51.874;8.430;2023-02-03T14:25:39;31.90;;;5.83;;
4575;SDS011;2300;51.874;8.430;2023-02-03T14:28:10;28.77;;;6.53;;
4575;SDS011;2300;51.874;8.430;2023-02-03T14:33:50;26.07;;;5.67;;
4575;SDS011;2300;51.874;8.430;2023-02-03T14:36:25;27.20;;;6.27;;
4575;SDS011;2300;51.874;8.430;2023-02-03T14:38:53;27.07;;;7.40;;
4575;SDS011;2300;51.874;8.430;2023-02-03T14:41:24;28.63;;;6.97;;
4575;SDS011;2300;51.874;8.430;2023-02-03T14:43:56;24.80;;;5.93;;
4575;SDS011;2300;51.874;8.430;2023-02-03T14:46:32;26.17;;;5.73;;
4575;SDS011;2300;51.874;8.430;2023-02-03T14:49:19;28.53;;;7.07;;
4575;SDS011;2300;51.874;8.430;2023-02-03T14:52:01;31.07;;;7.33;;
4575;SDS011;2300;51.874;8.430;2023-02-03T14:54:45;28.00;;;6.40;;
4575;SDS011;2300;51.874;8.430;2023-02-03T14:57:28;23.90;;;5.90;;
4575;SDS011;2300;51.874;8.430;2023-02-03T15:00:05;27.17;;;6.00;;
4575;SDS011;2300;51.874;8.430;2023-02-03T15:02:35;25.13;;;5.83;;
4575;SDS011;2300;51.874;8.430;2023-02-03T15:08:02;30.17;;;6.40;;
4575;SDS011;2300;51.874;8.430;2023-02-03T15:10:29;23.53;;;5.33;;
4575;SDS011;2300;51.874;8.430;2023-02-03T15:16:00;21.20;;;5.33;;
4575;SDS011;2300;51.874;8.430;2023-02-03T15:18:29;26.80;;;6.60;;
4575;SDS011;2300;51.874;8.430;2023-02-03T15:20:59;28.70;;;5.67;;
4575;SDS011;2300;51.874;8.430;2023-02-03T15:23:28;24.77;;;5.83;;
4575;SDS011;2300;51.874;8.430;2023-02-03T15:25:56;25.43;;;6.40;;
4575;SDS011;2300;51.874;8.430;2023-02-03T15:28:24;25.17;;;6.27;;
4575;SDS011;2300;51.874;8.430;2023-02-03T15:30:54;35.63;;;6.00;;
4575;SDS011;2300;51.874;8.430;2023-02-03T15:33:27;25.57;;;6.07;;
4575;SDS011;2300;51.874;8.430;2023-02-03T15:35:56;24.63;;;6.23;;